sensor_id;sensor_type;location;lat;lon;timestamp;pressure;altitude;pressure_sealevel;temperature;humidity
80568;BME280;69922;45.656;25.586;2024-03-23T00:54:24;95147.05;;;2.00;70.29
80568;BME280;69922;45.656;25.586;2024-03-23T00:55:30;95145.34;;;1.98;69.97
80568;BME280;69922;45.656;25.586;2024-03-23T00:56:38;95146.40;;;1.97;70.03
80568;BME280;69922;45.656;25.586;2024-03-23T00:57:44;95144.69;;;1.96;70.07
80568;BME280;69922;45.656;25.586;2024-03-23T00:58:50;95148.18;;;1.95;70.13
80568;BME280;69922;45.656;25.586;2024-03-23T00:59:58;95143.02;;;1.94;70.44
80568;BME280;69922;45.656;25.586;2024-03-23T01:01:06;95144.10;;;1.93;70.44
80568;BME280;69922;45.656;25.586;2024-03-23T01:02:12;95145.49;;;1.92;70.32
80568;BME280;69922;45.656;25.586;2024-03-23T01:03:18;95142.85;;;1.92;70.57
80568;BME280;69922;45.656;25.586;2024-03-23T01:04:26;95143.14;;;1.94;71.00
80568;BME280;69922;45.656;25.586;2024-03-23T01:05:32;95143.08;;;1.95;71.00
80568;BME280;69922;45.656;25.586;2024-03-23T01:06:38;95145.92;;;1.98;70.96
80568;BME280;69922;45.656;25.586;2024-03-23T01:07:44;95141.46;;;2.00;71.20
80568;BME280;69922;45.656;25.586;2024-03-23T01:08:51;95146.42;;;2.02;71.23
80568;BME280;69922;45.656;25.586;2024-03-23T01:09:59;95144.72;;;2.05;71.03
80568;BME280;69922;45.656;25.586;2024-03-23T01:11:06;95140.42;;;2.07;71.20
80568;BME280;69922;45.656;25.586;2024-03-23T01:12:12;95140.42;;;2.08;71.00
80568;BME280;69922;45.656;25.586;2024-03-23T01:13:19;95140.42;;;2.09;70.85
80568;BME280;69922;45.656;25.586;2024-03-23T01:14:28;95142.09;;;2.08;70.78
80568;BME280;69922;45.656;25.586;2024-03-23T01:15:34;95144.52;;;2.07;70.78
80568;BME280;69922;45.656;25.586;2024-03-23T01:16:41;95142.84;;;2.04;70.85
80568;BME280;69922;45.656;25.586;2024-03-23T01:17:48;95144.73;;;2.03;70.78
80568;BME280;69922;45.656;25.586;2024-03-23T01:18:54;95147.01;;;2.00;70.88
80568;BME280;69922;45.656;25.586;2024-03-23T01:20:00;95149.64;;;1.99;71.09
80568;BME280;69922;45.656;25.586;2024-03-23T01:21:07;95147.49;;;1.98;71.31
80568;BME280;69922;45.656;25.586;2024-03-23T01:22:14;95146.89;;;1.98;71.30
80568;BME280;69922;45.656;25.586;2024-03-23T01:23:20;95149.59;;;1.98;71.49
80568;BME280;69922;45.656;25.586;2024-03-23T01:24:27;95151.58;;;1.97;71.57
80568;BME280;69922;45.656;25.586;2024-03-23T01:25:34;95151.64;;;1.97;71.54
80568;BME280;69922;45.656;25.586;2024-03-23T01:26:42;95153.58;;;1.97;71.60
80568;BME280;69922;45.656;25.586;2024-03-23T01:27:48;95157.08;;;1.97;71.45
80568;BME280;69922;45.656;25.586;2024-03-23T01:28:55;95157.77;;;1.97;71.39
80568;BME280;69922;45.656;25.586;2024-03-23T01:30:01;95161.55;;;1.97;71.93
80568;BME280;69922;45.656;25.586;2024-03-23T01:31:08;95159.01;;;1.96;72.02
80568;BME280;69922;45.656;25.586;2024-03-23T01:32:14;95158.52;;;1.95;72.16
80568;BME280;69922;45.656;25.586;2024-03-23T01:33:21;95159.55;;;1.94;71.97
80568;BME280;69922;45.656;25.586;2024-03-23T01:34:27;95160.58;;;1.93;72.03
80568;BME280;69922;45.656;25.586;2024-03-23T01:35:34;95158.37;;;1.91;72.49
80568;BME280;69922;45.656;25.586;2024-03-23T01:36:40;95158.64;;;1.88;72.38
80568;BME280;69922;45.656;25.586;2024-03-23T01:37:47;95156.20;;;1.85;72.46
80568;BME280;69922;45.656;25.586;2024-03-23T01:38:54;95155.15;;;1.82;72.85
80568;BME280;69922;45.656;25.586;2024-03-23T01:40:00;95155.84;;;1.78;72.79
80568;BME280;69922;45.656;25.586;2024-03-23T01:41:07;95152.45;;;1.74;72.78
80568;BME280;69922;45.656;25.586;2024-03-23T01:42:14;95153.63;;;1.70;72.86
80568;BME280;69922;45.656;25.586;2024-03-23T01:43:20;95151.90;;;1.67;72.97
80568;BME280;69922;45.656;25.586;2024-03-23T01:44:28;95153.67;;;1.63;72.90
80568;BME280;69922;45.656;25.586;2024-03-23T01:45:35;95155.02;;;1.59;73.19
80568;BME280;69922;45.656;25.586;2024-03-23T01:46:42;95155.13;;;1.55;73.18
80568;BME280;69922;45.656;25.586;2024-03-23T01:47:50;95153.67;;;1.52;73.55
80568;BME280;69922;45.656;25.586;2024-03-23T01:48:58;95155.88;;;1.49;73.45
80568;BME280;69922;45.656;25.586;2024-03-23T01:50:07;95153.17;;;1.46;73.37
80568;BME280;69922;45.656;25.586;2024-03-23T01:51:14;95155.60;;;1.43;73.58
80568;BME280;69922;45.656;25.586;2024-03-23T01:52:20;95157.04;;;1.40;73.71
80568;BME280;69922;45.656;25.586;2024-03-23T01:53:27;95151.87;;;1.36;73.69
80568;BME280;69922;45.656;25.586;2024-03-23T01:54:33;95149.07;;;1.33;73.86
80568;BME280;69922;45.656;25.586;2024-03-23T01:55:43;95149.71;;;1.30;73.92
80568;BME280;69922;45.656;25.586;2024-03-23T01:56:50;95148.30;;;1.27;73.98
80568;BME280;69922;45.656;25.586;2024-03-23T01:57:58;95148.98;;;1.24;73.98
80568;BME280;69922;45.656;25.586;2024-03-23T01:59:06;95149.16;;;1.22;74.29
80568;BME280;69922;45.656;25.586;2024-03-23T02:00:14;95144.90;;;1.20;74.32
80568;BME280;69922;45.656;25.586;2024-03-23T02:01:20;95146.33;;;1.17;74.30
80568;BME280;69922;45.656;25.586;2024-03-23T02:02:26;95150.16;;;1.15;74.26
80568;BME280;69922;45.656;25.586;2024-03-23T02:03:33;95148.59;;;1.12;74.36
80568;BME280;69922;45.656;25.586;2024-03-23T02:04:40;95149.18;;;1.10;74.48
80568;BME280;69922;45.656;25.586;2024-03-23T02:05:47;95148.80;;;1.08;74.64
80568;BME280;69922;45.656;25.586;2024-03-23T02:06:53;95147.40;;;1.06;74.54
80568;BME280;69922;45.656;25.586;2024-03-23T02:07:59;95146.63;;;1.03;74.77
80568;BME280;69922;45.656;25.586;2024-03-23T02:09:06;95149.26;;;1.01;74.87
80568;BME280;69922;45.656;25.586;2024-03-23T02:10:12;95152.27;;;1.01;75.11
80568;BME280;69922;45.656;25.586;2024-03-23T02:11:19;95146.67;;;0.99;75.15
80568;BME280;69922;45.656;25.586;2024-03-23T02:12:26;95148.81;;;0.98;75.17
80568;BME280;69922;45.656;25.586;2024-03-23T02:13:32;95148.98;;;0.96;75.16
80568;BME280;69922;45.656;25.586;2024-03-23T02:14:39;95147.54;;;0.95;75.34
80568;BME280;69922;45.656;25.586;2024-03-23T02:15:45;95152.95;;;0.94;75.41
80568;BME280;69922;45.656;25.586;2024-03-23T02:16:53;95149.23;;;0.92;75.44
80568;BME280;69922;45.656;25.586;2024-03-23T02:17:59;95150.25;;;0.92;75.47
80568;BME280;69922;45.656;25.586;2024-03-23T02:19:06;95152.99;;;0.90;75.57
80568;BME280;69922;45.656;25.586;2024-03-23T02:20:13;95156.73;;;0.89;75.68
80568;BME280;69922;45.656;25.586;2024-03-23T02:21:19;95156.52;;;0.88;75.65
80568;BME280;69922;45.656;25.586;2024-03-23T02:22:27;95154.54;;;0.87;75.68
80568;BME280;69922;45.656;25.586;2024-03-23T02:23:40;95148.08;;;0.86;75.83
80568;BME280;69922;45.656;25.586;2024-03-23T02:24:47;95149.58;;;0.84;75.80
80568;BME280;69922;45.656;25.586;2024-03-23T02:25:54;95147.11;;;0.83;75.77
80568;BME280;69922;45.656;25.586;2024-03-23T02:27:01;95149.41;;;0.82;75.89
80568;BME280;69922;45.656;25.586;2024-03-23T02:28:10;95150.06;;;0.82;76.10
80568;BME280;69922;45.656;25.586;2024-03-23T02:29:18;95147.73;;;0.81;76.27
80568;BME280;69922;45.656;25.586;2024-03-23T02:30:25;95147.90;;;0.79;76.33
80568;BME280;69922;45.656;25.586;2024-03-23T02:31:32;95149.77;;;0.79;76.44
80568;BME280;69922;45.656;25.586;2024-03-23T02:32:38;95150.59;;;0.79;76.29
80568;BME280;69922;45.656;25.586;2024-03-23T02:33:44;95155.11;;;0.79;76.68
80568;BME280;69922;45.656;25.586;2024-03-23T02:34:51;95152.09;;;0.79;76.49
80568;BME280;69922;45.656;25.586;2024-03-23T02:35:59;95152.77;;;0.78;76.69
80568;BME280;69922;45.656;25.586;2024-03-23T02:37:12;95151.48;;;0.78;76.43
80568;BME280;69922;45.656;25.586;2024-03-23T02:38:18;95152.83;;;0.76;76.37
80568;BME280;69922;45.656;25.586;2024-03-23T02:39:25;95152.66;;;0.75;76.47
80568;BME280;69922;45.656;25.586;2024-03-23T02:40:32;95153.99;;;0.74;76.50
80568;BME280;69922;45.656;25.586;2024-03-23T02:41:39;95147.98;;;0.72;76.44
80568;BME280;69922;45.656;25.586;2024-03-23T02:42:47;95151.79;;;0.71;76.80
80568;BME280;69922;45.656;25.586;2024-03-23T02:43:53;95150.44;;;0.69;76.86
80568;BME280;69922;45.656;25.586;2024-03-23T02:45:00;95150.74;;;0.68;76.90
80568;BME280;69922;45.656;25.586;2024-03-23T02:46:07;95148.98;;;0.68;77.08
80568;BME280;69922;45.656;25.586;2024-03-23T02:47:15;95147.89;;;0.67;77.16
80568;BME280;69922;45.656;25.586;2024-03-23T02:48:21;95144.23;;;0.67;77.14
80568;BME280;69922;45.656;25.586;2024-03-23T02:49:29;95146.39;;;0.66;77.07
80568;BME280;69922;45.656;25.586;2024-03-23T02:50:37;95144.83;;;0.64;77.01
80568;BME280;69922;45.656;25.586;2024-03-23T02:51:43;95143.90;;;0.63;77.02
80568;BME280;69922;45.656;25.586;2024-03-23T02:52:50;95145.03;;;0.61;76.97
80568;BME280;69922;45.656;25.586;2024-03-23T02:53:57;95140.83;;;0.59;77.12
80568;BME280;69922;45.656;25.586;2024-03-23T02:55:05;95146.14;;;0.57;77.35
80568;BME280;69922;45.656;25.586;2024-03-23T02:56:12;95141.99;;;0.56;77.29
80568;BME280;69922;45.656;25.586;2024-03-23T02:57:21;95141.94;;;0.54;77.37
80568;BME280;69922;45.656;25.586;2024-03-23T02:58:27;95141.92;;;0.53;77.35
80568;BME280;69922;45.656;25.586;2024-03-23T02:59:34;95143.00;;;0.52;77.50
80568;BME280;69922;45.656;25.586;2024-03-23T03:00:40;95142.55;;;0.51;77.42
80568;BME280;69922;45.656;25.586;2024-03-23T03:01:47;95139.17;;;0.50;77.50
80568;BME280;69922;45.656;25.586;2024-03-23T03:02:55;95136.52;;;0.48;77.47
80568;BME280;69922;45.656;25.586;2024-03-23T03:04:03;95136.95;;;0.48;77.41
80568;BME280;69922;45.656;25.586;2024-03-23T03:05:12;95137.69;;;0.46;77.43
80568;BME280;69922;45.656;25.586;2024-03-23T03:06:26;95136.23;;;0.45;77.54
80568;BME280;69922;45.656;25.586;2024-03-23T03:07:33;95135.91;;;0.44;77.44
80568;BME280;69922;45.656;25.586;2024-03-23T03:08:39;95134.94;;;0.42;77.62
80568;BME280;69922;45.656;25.586;2024-03-23T03:09:46;95133.44;;;0.40;77.66
80568;BME280;69922;45.656;25.586;2024-03-23T03:10:52;95134.56;;;0.40;77.77
80568;BME280;69922;45.656;25.586;2024-03-23T03:11:58;95135.95;;;0.39;77.81
80568;BME280;69922;45.656;25.586;2024-03-23T03:13:05;95133.73;;;0.38;77.77
80568;BME280;69922;45.656;25.586;2024-03-23T03:14:11;95137.02;;;0.36;77.85
80568;BME280;69922;45.656;25.586;2024-03-23T03:15:18;95133.07;;;0.35;77.84
80568;BME280;69922;45.656;25.586;2024-03-23T03:16:24;95137.59;;;0.34;77.92
80568;BME280;69922;45.656;25.586;2024-03-23T03:17:30;95136.84;;;0.33;78.06
80568;BME280;69922;45.656;25.586;2024-03-23T03:18:37;95136.94;;;0.33;78.19
80568;BME280;69922;45.656;25.586;2024-03-23T03:19:43;95137.36;;;0.31;78.18
80568;BME280;69922;45.656;25.586;2024-03-23T03:20:50;95134.88;;;0.30;78.20
80568;BME280;69922;45.656;25.586;2024-03-23T03:21:57;95137.52;;;0.29;78.20
80568;BME280;69922;45.656;25.586;2024-03-23T03:23:04;95137.33;;;0.28;78.26
80568;BME280;69922;45.656;25.586;2024-03-23T03:24:10;95135.13;;;0.28;78.28
80568;BME280;69922;45.656;25.586;2024-03-23T03:25:17;95136.64;;;0.26;78.49
80568;BME280;69922;45.656;25.586;2024-03-23T03:26:23;95136.62;;;0.25;78.37
80568;BME280;69922;45.656;25.586;2024-03-23T03:27:29;95135.11;;;0.24;78.43
80568;BME280;69922;45.656;25.586;2024-03-23T03:28:36;95132.38;;;0.23;78.37
80568;BME280;69922;45.656;25.586;2024-03-23T03:29:43;95135.21;;;0.22;78.40
80568;BME280;69922;45.656;25.586;2024-03-23T03:30:50;95135.15;;;0.21;78.57
80568;BME280;69922;45.656;25.586;2024-03-23T03:31:57;95136.44;;;0.21;78.52
80568;BME280;69922;45.656;25.586;2024-03-23T03:33:04;95135.25;;;0.20;78.69
80568;BME280;69922;45.656;25.586;2024-03-23T03:34:11;95137.63;;;0.20;78.93
80568;BME280;69922;45.656;25.586;2024-03-23T03:35:18;95136.05;;;0.20;78.86
80568;BME280;69922;45.656;25.586;2024-03-23T03:36:24;95134.29;;;0.20;78.99
80568;BME280;69922;45.656;25.586;2024-03-23T03:37:31;95133.70;;;0.20;79.03
80568;BME280;69922;45.656;25.586;2024-03-23T03:38:38;95134.45;;;0.20;78.99
80568;BME280;69922;45.656;25.586;2024-03-23T03:39:44;95135.08;;;0.20;79.15
80568;BME280;69922;45.656;25.586;2024-03-23T03:40:51;95137.13;;;0.20;79.34
80568;BME280;69922;45.656;25.586;2024-03-23T03:42:00;95131.77;;;0.20;79.24
80568;BME280;69922;45.656;25.586;2024-03-23T03:43:08;95133.10;;;0.20;79.25
80568;BME280;69922;45.656;25.586;2024-03-23T03:44:15;95132.13;;;0.19;79.24
80568;BME280;69922;45.656;25.586;2024-03-23T03:45:23;95129.38;;;0.18;79.09
80568;BME280;69922;45.656;25.586;2024-03-23T03:46:29;95131.63;;;0.17;79.10
80568;BME280;69922;45.656;25.586;2024-03-23T03:47:36;95130.48;;;0.15;79.07
80568;BME280;69922;45.656;25.586;2024-03-23T03:48:43;95131.19;;;0.13;79.03
80568;BME280;69922;45.656;25.586;2024-03-23T03:49:53;95130.96;;;0.12;79.16
80568;BME280;69922;45.656;25.586;2024-03-23T03:50:59;95131.55;;;0.11;79.05
80568;BME280;69922;45.656;25.586;2024-03-23T03:52:07;95131.15;;;0.10;79.18
80568;BME280;69922;45.656;25.586;2024-03-23T03:53:13;95129.00;;;0.09;79.18
80568;BME280;69922;45.656;25.586;2024-03-23T03:54:20;95132.92;;;0.08;79.27
80568;BME280;69922;45.656;25.586;2024-03-23T03:55:28;95128.40;;;0.07;79.37
80568;BME280;69922;45.656;25.586;2024-03-23T03:56:35;95128.62;;;0.07;79.32
80568;BME280;69922;45.656;25.586;2024-03-23T03:57:42;95126.90;;;0.07;79.45
80568;BME280;69922;45.656;25.586;2024-03-23T03:58:49;95128.19;;;0.06;79.27
80568;BME280;69922;45.656;25.586;2024-03-23T03:59:56;95128.23;;;0.04;79.42
80568;BME280;69922;45.656;25.586;2024-03-23T04:01:03;95129.35;;;0.04;79.30
80568;BME280;69922;45.656;25.586;2024-03-23T04:02:09;95128.60;;;0.03;79.47
80568;BME280;69922;45.656;25.586;2024-03-23T04:03:16;95129.83;;;0.02;79.60
80568;BME280;69922;45.656;25.586;2024-03-23T04:04:23;95128.85;;;0.01;79.54
80568;BME280;69922;45.656;25.586;2024-03-23T04:05:29;95131.32;;;0.00;79.36
80568;BME280;69922;45.656;25.586;2024-03-23T04:06:36;95131.11;;;-0.01;79.47
80568;BME280;69922;45.656;25.586;2024-03-23T04:07:43;95129.00;;;-0.01;79.50
80568;BME280;69922;45.656;25.586;2024-03-23T04:08:50;95125.83;;;-0.01;79.54
80568;BME280;69922;45.656;25.586;2024-03-23T04:09:58;95129.92;;;-0.01;79.75
80568;BME280;69922;45.656;25.586;2024-03-23T04:11:05;95127.40;;;-0.01;79.66
80568;BME280;69922;45.656;25.586;2024-03-23T04:12:12;95126.70;;;0.00;79.81
80568;BME280;69922;45.656;25.586;2024-03-23T04:13:18;95127.09;;;0.00;79.61
80568;BME280;69922;45.656;25.586;2024-03-23T04:14:24;95120.64;;;0.00;79.65
80568;BME280;69922;45.656;25.586;2024-03-23T04:15:31;95121.17;;;0.00;79.65
80568;BME280;69922;45.656;25.586;2024-03-23T04:16:37;95117.95;;;0.00;79.58
80568;BME280;69922;45.656;25.586;2024-03-23T04:17:44;95117.20;;;0.00;79.50
80568;BME280;69922;45.656;25.586;2024-03-23T04:18:50;95118.55;;;0.01;79.48
80568;BME280;69922;45.656;25.586;2024-03-23T04:19:57;95112.96;;;0.01;79.60
80568;BME280;69922;45.656;25.586;2024-03-23T04:21:06;95114.09;;;0.02;79.56
80568;BME280;69922;45.656;25.586;2024-03-23T04:22:13;95112.10;;;0.02;79.65
80568;BME280;69922;45.656;25.586;2024-03-23T04:23:20;95115.12;;;0.03;79.49
80568;BME280;69922;45.656;25.586;2024-03-23T04:24:28;95112.48;;;0.04;79.39
80568;BME280;69922;45.656;25.586;2024-03-23T04:25:35;95109.77;;;0.05;79.55
80568;BME280;69922;45.656;25.586;2024-03-23T04:26:44;95110.84;;;0.04;79.49
80568;BME280;69922;45.656;25.586;2024-03-23T04:27:52;95113.85;;;0.06;79.62
80568;BME280;69922;45.656;25.586;2024-03-23T04:28:58;95112.98;;;0.07;79.48
80568;BME280;69922;45.656;25.586;2024-03-23T04:30:06;95110.36;;;0.07;79.59
80568;BME280;69922;45.656;25.586;2024-03-23T04:31:16;95112.46;;;0.09;79.71
80568;BME280;69922;45.656;25.586;2024-03-23T04:32:23;95108.88;;;0.11;79.68
80568;BME280;69922;45.656;25.586;2024-03-23T04:33:29;95108.08;;;0.12;79.56
80568;BME280;69922;45.656;25.586;2024-03-23T04:34:36;95109.71;;;0.14;79.50
80568;BME280;69922;45.656;25.586;2024-03-23T04:35:42;95108.31;;;0.15;79.60
80568;BME280;69922;45.656;25.586;2024-03-23T04:36:49;95107.90;;;0.17;79.55
80568;BME280;69922;45.656;25.586;2024-03-23T04:37:55;95106.40;;;0.19;79.60
80568;BME280;69922;45.656;25.586;2024-03-23T04:39:02;95106.25;;;0.21;79.49
80568;BME280;69922;45.656;25.586;2024-03-23T04:40:12;95108.02;;;0.23;79.60
80568;BME280;69922;45.656;25.586;2024-03-23T04:41:19;95109.49;;;0.25;79.58
80568;BME280;69922;45.656;25.586;2024-03-23T04:42:26;95109.92;;;0.26;79.64
80568;BME280;69922;45.656;25.586;2024-03-23T04:43:33;95112.35;;;0.29;79.77
80568;BME280;69922;45.656;25.586;2024-03-23T04:44:41;95109.75;;;0.30;79.61
80568;BME280;69922;45.656;25.586;2024-03-23T04:45:48;95110.67;;;0.33;79.47
80568;BME280;69922;45.656;25.586;2024-03-23T04:46:54;95107.61;;;0.34;79.45
80568;BME280;69922;45.656;25.586;2024-03-23T04:48:01;95108.80;;;0.37;79.40
80568;BME280;69922;45.656;25.586;2024-03-23T04:49:07;95108.13;;;0.40;79.41
80568;BME280;69922;45.656;25.586;2024-03-23T04:50:14;95109.10;;;0.42;79.45
80568;BME280;69922;45.656;25.586;2024-03-23T04:51:24;95108.36;;;0.44;79.39
80568;BME280;69922;45.656;25.586;2024-03-23T04:52:31;95106.65;;;0.47;79.34
80568;BME280;69922;45.656;25.586;2024-03-23T04:53:37;95105.64;;;0.50;79.30
80568;BME280;69922;45.656;25.586;2024-03-23T04:54:43;95108.02;;;0.52;79.46
80568;BME280;69922;45.656;25.586;2024-03-23T04:55:51;95108.77;;;0.56;79.34
80568;BME280;69922;45.656;25.586;2024-03-23T04:56:57;95109.71;;;0.59;79.24
80568;BME280;69922;45.656;25.586;2024-03-23T04:58:04;95110.96;;;0.63;79.11
80568;BME280;69922;45.656;25.586;2024-03-23T04:59:10;95109.68;;;0.65;78.88
80568;BME280;69922;45.656;25.586;2024-03-23T05:00:19;95109.10;;;0.68;78.93
80568;BME280;69922;45.656;25.586;2024-03-23T05:01:26;95107.77;;;0.70;78.84
80568;BME280;69922;45.656;25.586;2024-03-23T05:02:33;95107.34;;;0.73;78.63
80568;BME280;69922;45.656;25.586;2024-03-23T05:03:41;95107.14;;;0.76;78.55
80568;BME280;69922;45.656;25.586;2024-03-23T05:04:48;95105.91;;;0.79;78.47
80568;BME280;69922;45.656;25.586;2024-03-23T05:05:54;95102.21;;;0.82;78.47
80568;BME280;69922;45.656;25.586;2024-03-23T05:07:00;95099.86;;;0.84;78.60
80568;BME280;69922;45.656;25.586;2024-03-23T05:08:08;95100.02;;;0.88;78.50
80568;BME280;69922;45.656;25.586;2024-03-23T05:09:14;95098.95;;;0.91;78.35
80568;BME280;69922;45.656;25.586;2024-03-23T05:10:20;95099.28;;;0.94;78.26
80568;BME280;69922;45.656;25.586;2024-03-23T05:11:27;95098.27;;;0.98;78.32
80568;BME280;69922;45.656;25.586;2024-03-23T05:12:34;95098.13;;;1.01;78.24
80568;BME280;69922;45.656;25.586;2024-03-23T05:13:44;95098.50;;;1.06;78.14
80568;BME280;69922;45.656;25.586;2024-03-23T05:14:50;95100.39;;;1.09;78.08
80568;BME280;69922;45.656;25.586;2024-03-23T05:15:58;95097.17;;;1.13;77.93
80568;BME280;69922;45.656;25.586;2024-03-23T05:17:05;95100.30;;;1.17;77.83
80568;BME280;69922;45.656;25.586;2024-03-23T05:18:12;95098.16;;;1.21;77.66
80568;BME280;69922;45.656;25.586;2024-03-23T05:19:19;95100.20;;;1.24;77.66
80568;BME280;69922;45.656;25.586;2024-03-23T05:20:26;95102.03;;;1.28;77.72
80568;BME280;69922;45.656;25.586;2024-03-23T05:21:32;95101.56;;;1.32;77.37
80568;BME280;69922;45.656;25.586;2024-03-23T05:22:39;95096.77;;;1.35;77.38
80568;BME280;69922;45.656;25.586;2024-03-23T05:23:45;95098.39;;;1.39;77.44
80568;BME280;69922;45.656;25.586;2024-03-23T05:24:52;95096.63;;;1.41;77.34
80568;BME280;69922;45.656;25.586;2024-03-23T05:25:59;95096.02;;;1.46;77.11
80568;BME280;69922;45.656;25.586;2024-03-23T05:27:08;95098.24;;;1.49;76.99
80568;BME280;69922;45.656;25.586;2024-03-23T05:28:15;95092.52;;;1.53;77.05
80568;BME280;69922;45.656;25.586;2024-03-23T05:29:22;95093.87;;;1.58;77.18
80568;BME280;69922;45.656;25.586;2024-03-23T05:30:29;95090.74;;;1.61;76.71
80568;BME280;69922;45.656;25.586;2024-03-23T05:31:36;95088.17;;;1.65;76.79
80568;BME280;69922;45.656;25.586;2024-03-23T05:32:43;95092.96;;;1.69;76.62
80568;BME280;69922;45.656;25.586;2024-03-23T05:33:51;95089.67;;;1.74;76.65
80568;BME280;69922;45.656;25.586;2024-03-23T05:34:58;95086.02;;;1.79;76.39
80568;BME280;69922;45.656;25.586;2024-03-23T05:36:06;95085.67;;;1.84;76.20
80568;BME280;69922;45.656;25.586;2024-03-23T05:37:17;95084.59;;;1.88;76.19
80568;BME280;69922;45.656;25.586;2024-03-23T05:38:23;95083.77;;;1.92;75.97
80568;BME280;69922;45.656;25.586;2024-03-23T05:39:30;95082.10;;;1.97;76.11
80568;BME280;69922;45.656;25.586;2024-03-23T05:40:36;95081.52;;;2.01;75.85
80568;BME280;69922;45.656;25.586;2024-03-23T05:41:46;95081.98;;;2.05;75.87
80568;BME280;69922;45.656;25.586;2024-03-23T05:42:53;95081.60;;;2.09;75.81
80568;BME280;69922;45.656;25.586;2024-03-23T05:43:59;95079.80;;;2.13;75.48
80568;BME280;69922;45.656;25.586;2024-03-23T05:45:10;95075.98;;;2.16;75.29
80568;BME280;69922;45.656;25.586;2024-03-23T05:46:17;95079.25;;;2.20;74.96
80568;BME280;69922;45.656;25.586;2024-03-23T05:47:24;95076.49;;;2.23;75.20
80568;BME280;69922;45.656;25.586;2024-03-23T05:48:31;95077.58;;;2.27;75.42
80568;BME280;69922;45.656;25.586;2024-03-23T05:49:38;95076.14;;;2.31;74.87
80568;BME280;69922;45.656;25.586;2024-03-23T05:50:44;95078.23;;;2.36;74.81
80568;BME280;69922;45.656;25.586;2024-03-23T05:51:50;95076.06;;;2.42;74.76
80568;BME280;69922;45.656;25.586;2024-03-23T05:52:56;95073.67;;;2.47;74.78
80568;BME280;69922;45.656;25.586;2024-03-23T05:54:03;95076.89;;;2.52;74.36
80568;BME280;69922;45.656;25.586;2024-03-23T05:55:09;95076.92;;;2.56;74.52
80568;BME280;69922;45.656;25.586;2024-03-23T05:56:19;95079.80;;;2.62;74.28
80568;BME280;69922;45.656;25.586;2024-03-23T05:57:26;95078.23;;;2.68;74.00
80568;BME280;69922;45.656;25.586;2024-03-23T05:58:33;95077.17;;;2.74;74.12
80568;BME280;69922;45.656;25.586;2024-03-23T05:59:39;95073.20;;;2.81;74.00
80568;BME280;69922;45.656;25.586;2024-03-23T06:00:45;95073.92;;;2.86;73.87
80568;BME280;69922;45.656;25.586;2024-03-23T06:01:51;95077.13;;;2.92;73.62
80568;BME280;69922;45.656;25.586;2024-03-23T06:02:58;95076.71;;;2.99;73.94
80568;BME280;69922;45.656;25.586;2024-03-23T06:04:04;95077.43;;;3.05;73.55
80568;BME280;69922;45.656;25.586;2024-03-23T06:05:11;95073.99;;;3.13;73.55
80568;BME280;69922;45.656;25.586;2024-03-23T06:06:18;95077.20;;;3.20;73.08
80568;BME280;69922;45.656;25.586;2024-03-23T06:07:24;95078.98;;;3.27;72.82
80568;BME280;69922;45.656;25.586;2024-03-23T06:08:31;95080.34;;;3.34;72.77
80568;BME280;69922;45.656;25.586;2024-03-23T06:09:38;95077.91;;;3.41;72.68
80568;BME280;69922;45.656;25.586;2024-03-23T06:10:45;95082.77;;;3.47;72.52
80568;BME280;69922;45.656;25.586;2024-03-23T06:11:51;95081.22;;;3.52;72.18
80568;BME280;69922;45.656;25.586;2024-03-23T06:12:58;95085.01;;;3.60;71.96
80568;BME280;69922;45.656;25.586;2024-03-23T06:14:05;95089.17;;;3.65;71.84
80568;BME280;69922;45.656;25.586;2024-03-23T06:15:12;95090.22;;;3.69;71.51
80568;BME280;69922;45.656;25.586;2024-03-23T06:16:20;95093.79;;;3.74;71.35
80568;BME280;69922;45.656;25.586;2024-03-23T06:17:29;95094.14;;;3.78;71.49
80568;BME280;69922;45.656;25.586;2024-03-23T06:18:35;95096.42;;;3.82;71.22
80568;BME280;69922;45.656;25.586;2024-03-23T06:19:42;95094.24;;;3.86;71.09
80568;BME280;69922;45.656;25.586;2024-03-23T06:20:48;95096.31;;;3.91;70.76
80568;BME280;69922;45.656;25.586;2024-03-23T06:21:55;95096.42;;;3.95;70.43
80568;BME280;69922;45.656;25.586;2024-03-23T06:23:02;95094.50;;;3.99;70.26
80568;BME280;69922;45.656;25.586;2024-03-23T06:24:10;95097.70;;;4.04;70.27
80568;BME280;69922;45.656;25.586;2024-03-23T06:25:17;95097.11;;;4.08;70.34
80568;BME280;69922;45.656;25.586;2024-03-23T06:26:25;95098.37;;;4.13;69.76
80568;BME280;69922;45.656;25.586;2024-03-23T06:27:32;95095.41;;;4.17;69.87
80568;BME280;69922;45.656;25.586;2024-03-23T06:28:39;95097.35;;;4.23;69.67
80568;BME280;69922;45.656;25.586;2024-03-23T06:29:45;95095.94;;;4.30;69.54
80568;BME280;69922;45.656;25.586;2024-03-23T06:30:52;95100.85;;;4.35;69.33
80568;BME280;69922;45.656;25.586;2024-03-23T06:31:58;95095.12;;;4.39;68.83
80568;BME280;69922;45.656;25.586;2024-03-23T06:33:06;95093.54;;;4.45;68.71
80568;BME280;69922;45.656;25.586;2024-03-23T06:34:12;95097.42;;;4.51;68.89
80568;BME280;69922;45.656;25.586;2024-03-23T06:35:19;95097.85;;;4.57;69.13
80568;BME280;69922;45.656;25.586;2024-03-23T06:36:26;95095.44;;;4.64;69.12
80568;BME280;69922;45.656;25.586;2024-03-23T06:37:33;95098.85;;;4.73;68.56
80568;BME280;69922;45.656;25.586;2024-03-23T06:38:39;95098.13;;;4.79;68.06
80568;BME280;69922;45.656;25.586;2024-03-23T06:39:48;95098.16;;;4.86;68.06
80568;BME280;69922;45.656;25.586;2024-03-23T06:40:53;95095.63;;;4.94;67.43
80568;BME280;69922;45.656;25.586;2024-03-23T06:41:59;95093.14;;;4.97;67.57
80568;BME280;69922;45.656;25.586;2024-03-23T06:43:06;95092.66;;;5.02;67.04
80568;BME280;69922;45.656;25.586;2024-03-23T06:44:12;95093.41;;;5.07;66.88
80568;BME280;69922;45.656;25.586;2024-03-23T06:45:19;95088.79;;;5.11;66.50
80568;BME280;69922;45.656;25.586;2024-03-23T06:46:29;95087.20;;;5.16;66.00
80568;BME280;69922;45.656;25.586;2024-03-23T06:47:35;95085.01;;;5.20;65.62
80568;BME280;69922;45.656;25.586;2024-03-23T06:48:41;95087.83;;;5.22;65.33